createdAt,value
2018-05-29T00:04:19.770Z,63.50
2018-05-29T00:09:21.310Z,63.70
2018-05-29T00:14:22.926Z,63.10
2018-05-29T00:19:24.727Z,63.40
2018-05-29T00:24:26.439Z,63.00
2018-05-29T00:29:34.896Z,63.40
2018-05-29T00:34:38.024Z,64.00
2018-05-29T00:39:40.792Z,65.10
2018-05-29T00:44:42.888Z,64.20
2018-05-29T00:49:45.230Z,62.80
2018-05-29T00:55:05.826Z,62.70
2018-05-29T01:00:07.675Z,63.30
2018-05-29T01:05:10.186Z,61.50
2018-05-29T01:10:11.810Z,61.50
2018-05-29T01:15:13.532Z,63.10
2018-05-29T01:20:15.064Z,63.20
2018-05-29T01:25:17.391Z,61.90
2018-05-29T01:30:18.993Z,61.80
2018-05-29T01:35:20.489Z,59.70
2018-05-29T01:40:22.751Z,59.90
2018-05-29T01:45:24.536Z,60.70
2018-05-29T01:50:28.842Z,59.90
2018-05-29T01:55:30.660Z,61.40
2018-05-29T02:00:37.065Z,60.30
2018-05-29T02:05:44.415Z,60.30
2018-05-29T02:10:50.849Z,60.70
2018-05-29T02:15:55.484Z,61.60
2018-05-29T02:26:06.709Z,61.10
2018-05-29T02:31:10.091Z,61.00
2018-05-29T02:36:16.984Z,61.30
2018-05-29T02:41:18.994Z,61.70
2018-05-29T02:46:22.200Z,62.00
2018-05-29T02:51:29.470Z,63.00
2018-05-29T02:56:31.476Z,63.40
2018-05-29T03:01:33.016Z,64.00
2018-05-29T03:06:34.526Z,64.80
2018-05-29T03:11:36.273Z,65.30
2018-05-29T03:16:38.775Z,64.90
2018-05-29T03:21:40.548Z,64.80
2018-05-29T03:26:42.216Z,65.40
2018-05-29T03:31:45.265Z,66.10
2018-05-29T03:36:47.084Z,66.40
2018-05-29T03:41:51.399Z,66.50
2018-05-29T03:46:53.798Z,66.70
2018-05-29T03:52:01.277Z,66.10
2018-05-29T03:57:05.287Z,66.10
2018-05-29T04:02:07.363Z,66.10
2018-05-29T04:07:09.123Z,65.40
2018-05-29T04:12:11.439Z,64.40
2018-05-29T04:17:15.050Z,64.50
2018-05-29T04:22:16.970Z,63.60
2018-05-29T04:27:21.791Z,60.30
2018-05-29T04:32:24.740Z,57.50
2018-05-29T04:37:26.273Z,57.40
2018-05-29T04:42:28.686Z,53.20
2018-05-29T04:47:30.260Z,53.20
2018-05-29T04:52:31.783Z,53.50
2018-05-29T04:57:33.388Z,52.60
2018-05-29T05:02:35.161Z,52.20
2018-05-29T05:07:36.938Z,47.40
2018-05-29T05:12:38.708Z,45.90
2018-05-29T05:17:40.269Z,46.70
2018-05-29T05:22:42.772Z,48.60
2018-05-29T05:27:44.584Z,48.60
2018-05-29T05:32:46.159Z,48.00
2018-05-29T05:37:47.693Z,50.20
2018-05-29T05:42:49.244Z,46.00
2018-05-29T05:47:52.021Z,43.10
2018-05-29T05:52:57.424Z,40.10
2018-05-29T05:57:59.533Z,40.10
2018-05-29T06:03:01.425Z,39.80
2018-05-29T06:08:04.835Z,39.10
2018-05-29T06:13:06.708Z,40.60
2018-05-29T06:18:08.606Z,38.10
2018-05-29T06:23:29.467Z,36.90
2018-05-29T06:28:36.808Z,35.60
2018-05-29T06:33:44.284Z,36.90
2018-05-29T06:38:51.022Z,36.90
2018-05-29T06:43:55.304Z,35.90
2018-05-29T06:49:01.818Z,36.30
2018-05-29T06:54:09.498Z,36.20
2018-05-29T06:59:14.448Z,36.20
2018-05-29T07:04:19.464Z,34.30
2018-05-29T07:09:32.787Z,35.20
2018-05-29T07:14:39.752Z,35.70
2018-05-29T07:19:46.985Z,36.30
2018-05-29T07:25:02.320Z,36.20
2018-05-29T07:30:08.936Z,33.90
2018-05-29T07:35:15.297Z,31.80
2018-05-29T07:40:22.569Z,31.40
2018-05-29T07:45:28.776Z,29.60
2018-05-29T07:50:35.277Z,30.20
2018-05-29T07:55:43.555Z,29.60
2018-05-29T08:00:51.404Z,29.50
2018-05-29T08:06:00.064Z,27.50
2018-05-29T08:11:06.585Z,27.00
2018-05-29T08:16:13.713Z,26.90
2018-05-29T08:21:20.961Z,27.50
2018-05-29T08:26:29.095Z,27.50
2018-05-29T08:31:33.107Z,28.90
2018-05-29T08:36:38.012Z,28.60
2018-05-29T08:41:43.956Z,27.60
2018-05-29T08:46:52.243Z,28.20
2018-05-29T08:52:00.303Z,29.40
2018-05-29T08:57:07.533Z,29.40
2018-05-29T09:02:14.580Z,29.80
2018-05-29T09:07:20.914Z,31.10
2018-05-29T09:12:27.885Z,31.80
2018-05-29T09:17:34.362Z,31.50
2018-05-29T09:22:42.891Z,32.50
2018-05-29T09:27:49.316Z,32.50
2018-05-29T09:32:55.197Z,32.60
2018-05-29T09:38:00.585Z,32.30
2018-05-29T09:43:07.205Z,31.40
2018-05-29T09:48:13.655Z,31.80
2018-05-29T09:53:20.404Z,32.90
2018-05-29T09:58:27.944Z,33.90
2018-05-29T10:03:35.108Z,34.30
2018-05-29T10:08:42.436Z,34.80
2018-05-29T10:13:48.022Z,34.30
2018-05-29T10:18:56.279Z,35.30
2018-05-29T10:24:02.354Z,35.80
2018-05-29T10:29:08.782Z,36.40
2018-05-29T10:34:15.964Z,36.90
2018-05-29T10:39:21.991Z,36.60
2018-05-29T10:44:28.240Z,35.70
2018-05-29T13:36:53.612Z,42.60
2018-05-29T13:41:55.264Z,42.50
2018-05-29T13:46:57.978Z,43.30
2018-05-29T13:51:59.652Z,43.90
2018-05-29T13:57:01.391Z,42.60
2018-05-29T14:02:02.980Z,40.30
2018-05-29T14:07:04.720Z,41.60
2018-05-29T14:12:06.507Z,43.30
2018-05-29T14:17:08.446Z,45.70
2018-05-29T14:22:09.995Z,43.90
2018-05-29T14:27:11.716Z,43.00
2018-05-29T14:32:13.460Z,43.80
2018-05-29T14:37:16.110Z,44.70
2018-05-29T14:42:17.955Z,44.70
2018-05-29T14:47:19.733Z,45.10
2018-05-29T14:52:26.221Z,44.50
2018-05-29T14:57:28.555Z,45.00
2018-05-29T15:02:31.023Z,46.00
2018-05-29T15:07:32.904Z,46.00
2018-05-29T15:12:35.071Z,45.70
2018-05-29T15:17:38.939Z,45.00
2018-05-29T15:22:40.722Z,43.90
2018-05-29T15:27:46.989Z,44.40
2018-05-29T15:32:48.615Z,44.50
2018-05-29T15:37:51.137Z,45.60
2018-05-29T15:42:53.133Z,45.40
2018-05-29T15:47:55.815Z,45.40
2018-05-29T15:52:58.663Z,44.30
2018-05-29T15:58:01.919Z,44.30
2018-05-29T16:03:05.383Z,45.90
2018-05-29T16:08:06.905Z,45.70
2018-05-29T16:13:08.860Z,46.60
2018-05-29T16:18:10.411Z,47.40
2018-05-29T16:23:12.356Z,48.70
2018-05-29T16:28:14.832Z,47.90
2018-05-29T16:33:17.408Z,46.60
2018-05-29T16:38:19.040Z,46.60
2018-05-29T16:43:21.876Z,46.50
2018-05-29T16:48:24.105Z,48.00
2018-05-29T16:53:27.003Z,48.60
2018-05-29T16:58:28.720Z,48.50
2018-05-29T17:03:30.871Z,49.00
2018-05-29T17:08:32.737Z,47.80
2018-05-29T17:13:34.747Z,47.30
2018-05-29T17:18:36.884Z,45.90
2018-05-29T17:23:38.819Z,46.60
2018-05-29T17:28:40.745Z,47.80
2018-05-29T17:33:43.616Z,48.20
2018-05-29T17:38:45.724Z,48.40
2018-05-29T17:43:47.820Z,49.10
2018-05-29T17:48:50.081Z,50.10
2018-05-29T17:53:53.637Z,50.80
2018-05-29T17:58:55.605Z,50.80
2018-05-29T18:03:57.357Z,50.70
2018-05-29T18:08:59.229Z,51.00
2018-05-29T18:14:01.216Z,51.80
2018-05-29T18:19:04.398Z,52.20
2018-05-29T18:24:06.388Z,51.60
2018-05-29T18:29:08.176Z,52.30
2018-05-29T18:34:10.033Z,53.00
2018-05-29T18:39:12.773Z,53.10
2018-05-29T18:44:14.669Z,53.20
2018-05-29T18:49:18.564Z,53.20
2018-05-29T18:54:21.612Z,54.20
2018-05-29T18:59:25.709Z,54.60
2018-05-29T19:04:29.911Z,55.70
2018-05-29T19:09:34.068Z,55.70
2018-05-29T19:14:37.369Z,55.40
2018-05-29T19:19:40.019Z,55.70
2018-05-29T19:24:41.916Z,56.30
2018-05-29T19:29:43.886Z,56.60
2018-05-29T19:34:45.741Z,56.80
2018-05-29T19:39:48.473Z,56.90
2018-05-29T19:44:50.553Z,56.90
2018-05-29T19:49:52.436Z,57.10
2018-05-29T19:54:54.366Z,57.60
2018-05-29T19:59:56.783Z,56.70
2018-05-29T20:04:59.540Z,56.60
2018-05-29T20:10:02.303Z,56.60
2018-05-29T20:15:05.246Z,56.90
2018-05-29T20:20:07.814Z,57.70
2018-05-29T20:25:10.619Z,57.60
2018-05-29T20:30:13.673Z,57.60
2018-05-29T20:35:16.605Z,57.60
2018-05-29T20:40:20.148Z,57.60
2018-05-29T20:45:23.161Z,57.60
2018-05-29T20:50:27.394Z,57.60
2018-05-29T20:55:31.403Z,57.00
2018-05-29T21:00:35.968Z,57.00
2018-05-29T21:05:38.952Z,56.90
2018-05-29T21:10:44.728Z,57.90
2018-05-29T21:15:50.588Z,57.70
2018-05-29T21:20:53.301Z,58.40
2018-05-29T21:25:55.464Z,58.40
2018-05-29T21:30:57.479Z,58.40
2018-05-29T21:35:59.052Z,59.40
2018-05-29T21:41:01.035Z,59.30
2018-05-29T21:46:02.890Z,59.50
2018-05-29T21:51:04.536Z,59.60
2018-05-29T21:56:06.497Z,60.20
2018-05-29T22:01:08.219Z,60.50
2018-05-29T22:06:10.184Z,60.90
2018-05-29T22:11:12.518Z,62.20
2018-05-29T22:16:14.411Z,63.10
2018-05-29T22:21:16.323Z,62.90
2018-05-29T22:26:18.221Z,63.80
2018-05-29T22:31:20.376Z,63.60
2018-05-29T22:36:22.839Z,63.40
2018-05-29T22:41:24.674Z,64.10
2018-05-29T22:46:26.804Z,63.00
2018-05-29T22:51:28.393Z,62.80
2018-05-29T22:56:31.683Z,62.10
2018-05-29T23:01:33.347Z,62.00
2018-05-29T23:06:35.541Z,63.00
2018-05-29T23:11:37.632Z,62.90
2018-05-29T23:16:40.436Z,64.50
2018-05-29T23:21:42.790Z,65.00
2018-05-29T23:26:48.460Z,64.90
2018-05-29T23:31:49.988Z,66.30
2018-05-29T23:36:52.483Z,67.70
2018-05-29T23:41:54.763Z,68.70
2018-05-29T23:46:57.039Z,69.80
2018-05-29T23:51:58.561Z,69.60
2018-05-29T23:57:00.159Z,69.60
